sensor_id;sensor_type;location;lat;lon;timestamp;temperature;humidity
21312;DHT22;18076;52.154;10.570;2022-08-19T00:00:16;20.80;99.90
21312;DHT22;18076;52.154;10.570;2022-08-19T00:02:41;20.80;99.90
21312;DHT22;18076;52.154;10.570;2022-08-19T00:05:07;20.80;99.90
21312;DHT22;18076;52.154;10.570;2022-08-19T00:07:33;20.80;99.90
21312;DHT22;18076;52.154;10.570;2022-08-19T00:09:59;20.80;99.90
21312;DHT22;18076;52.154;10.570;2022-08-19T00:12:24;20.80;99.90
21312;DHT22;18076;52.154;10.570;2022-08-19T00:14:50;20.80;99.90
21312;DHT22;18076;52.154;10.570;2022-08-19T00:17:15;20.90;99.90
21312;DHT22;18076;52.154;10.570;2022-08-19T00:19:41;20.90;99.90
21312;DHT22;18076;52.154;10.570;2022-08-19T00:22:07;20.90;99.90
21312;DHT22;18076;52.154;10.570;2022-08-19T00:24:34;20.90;99.90
21312;DHT22;18076;52.154;10.570;2022-08-19T00:27:00;20.90;99.90
21312;DHT22;18076;52.154;10.570;2022-08-19T00:29:27;21.00;99.90
21312;DHT22;18076;52.154;10.570;2022-08-19T00:31:52;21.00;99.90
21312;DHT22;18076;52.154;10.570;2022-08-19T00:34:18;20.80;99.90
21312;DHT22;18076;52.154;10.570;2022-08-19T00:36:43;20.70;99.90
21312;DHT22;18076;52.154;10.570;2022-08-19T00:39:09;20.70;99.90
21312;DHT22;18076;52.154;10.570;2022-08-19T00:41:35;20.60;99.90
21312;DHT22;18076;52.154;10.570;2022-08-19T00:46:33;20.60;99.90
21312;DHT22;18076;52.154;10.570;2022-08-19T00:48:59;20.50;99.90
21312;DHT22;18076;52.154;10.570;2022-08-19T00:51:26;20.40;99.90
21312;DHT22;18076;52.154;10.570;2022-08-19T00:53:52;20.40;99.90
21312;DHT22;18076;52.154;10.570;2022-08-19T00:56:19;20.40;99.90
21312;DHT22;18076;52.154;10.570;2022-08-19T00:58:45;20.30;99.90
21312;DHT22;18076;52.154;10.570;2022-08-19T01:01:10;20.30;99.90
21312;DHT22;18076;52.154;10.570;2022-08-19T01:03:36;20.30;99.90
21312;DHT22;18076;52.154;10.570;2022-08-19T01:06:01;20.20;99.90
21312;DHT22;18076;52.154;10.570;2022-08-19T01:08:27;20.20;99.90
21312;DHT22;18076;52.154;10.570;2022-08-19T01:10:54;20.20;99.90
21312;DHT22;18076;52.154;10.570;2022-08-19T01:13:21;20.10;99.90
21312;DHT22;18076;52.154;10.570;2022-08-19T01:15:50;20.10;99.90
21312;DHT22;18076;52.154;10.570;2022-08-19T01:18:16;20.10;99.90
21312;DHT22;18076;52.154;10.570;2022-08-19T01:20:43;20.10;99.90
21312;DHT22;18076;52.154;10.570;2022-08-19T01:23:09;20.10;99.90
21312;DHT22;18076;52.154;10.570;2022-08-19T01:25:36;20.10;99.90
21312;DHT22;18076;52.154;10.570;2022-08-19T01:28:04;20.00;99.90
21312;DHT22;18076;52.154;10.570;2022-08-19T01:30:32;20.00;99.90
21312;DHT22;18076;52.154;10.570;2022-08-19T01:32:58;20.00;99.90
21312;DHT22;18076;52.154;10.570;2022-08-19T01:35:26;19.90;99.90
21312;DHT22;18076;52.154;10.570;2022-08-19T01:40:18;19.90;99.90
21312;DHT22;18076;52.154;10.570;2022-08-19T01:42:46;19.90;99.90
21312;DHT22;18076;52.154;10.570;2022-08-19T01:45:13;19.90;99.90
21312;DHT22;18076;52.154;10.570;2022-08-19T01:47:39;19.90;99.90
21312;DHT22;18076;52.154;10.570;2022-08-19T01:50:05;19.80;99.90
21312;DHT22;18076;52.154;10.570;2022-08-19T01:52:31;19.90;99.90
21312;DHT22;18076;52.154;10.570;2022-08-19T01:54:57;19.80;99.90
21312;DHT22;18076;52.154;10.570;2022-08-19T01:57:22;19.70;99.90
21312;DHT22;18076;52.154;10.570;2022-08-19T01:59:48;19.70;99.90
21312;DHT22;18076;52.154;10.570;2022-08-19T02:02:13;19.70;99.90
21312;DHT22;18076;52.154;10.570;2022-08-19T02:04:39;19.70;99.90
21312;DHT22;18076;52.154;10.570;2022-08-19T02:07:05;19.70;99.90
21312;DHT22;18076;52.154;10.570;2022-08-19T02:09:31;19.70;99.90
21312;DHT22;18076;52.154;10.570;2022-08-19T02:11:57;19.60;99.90
21312;DHT22;18076;52.154;10.570;2022-08-19T02:14:23;19.70;99.90
21312;DHT22;18076;52.154;10.570;2022-08-19T02:16:49;19.60;99.90
21312;DHT22;18076;52.154;10.570;2022-08-19T02:19:14;19.60;99.90
21312;DHT22;18076;52.154;10.570;2022-08-19T02:21:40;19.60;99.90
21312;DHT22;18076;52.154;10.570;2022-08-19T02:24:05;19.60;99.90
21312;DHT22;18076;52.154;10.570;2022-08-19T02:26:31;19.60;99.90
21312;DHT22;18076;52.154;10.570;2022-08-19T02:28:57;19.60;99.90
21312;DHT22;18076;52.154;10.570;2022-08-19T02:31:24;19.60;99.90
21312;DHT22;18076;52.154;10.570;2022-08-19T02:33:49;19.50;99.90
21312;DHT22;18076;52.154;10.570;2022-08-19T02:36:16;19.50;99.90
21312;DHT22;18076;52.154;10.570;2022-08-19T02:38:44;19.50;99.90
21312;DHT22;18076;52.154;10.570;2022-08-19T02:41:14;19.50;99.90
21312;DHT22;18076;52.154;10.570;2022-08-19T02:43:41;19.50;99.90
21312;DHT22;18076;52.154;10.570;2022-08-19T02:46:17;19.50;99.90
21312;DHT22;18076;52.154;10.570;2022-08-19T02:48:49;19.40;99.90
21312;DHT22;18076;52.154;10.570;2022-08-19T02:51:20;19.40;99.90
21312;DHT22;18076;52.154;10.570;2022-08-19T02:53:46;19.30;99.90
21312;DHT22;18076;52.154;10.570;2022-08-19T02:56:11;19.30;99.90
21312;DHT22;18076;52.154;10.570;2022-08-19T02:58:37;19.30;99.90
21312;DHT22;18076;52.154;10.570;2022-08-19T03:01:03;19.20;99.90
21312;DHT22;18076;52.154;10.570;2022-08-19T03:03:29;19.20;99.90
21312;DHT22;18076;52.154;10.570;2022-08-19T03:06:09;19.20;99.90
21312;DHT22;18076;52.154;10.570;2022-08-19T03:08:35;19.10;99.90
21312;DHT22;18076;52.154;10.570;2022-08-19T03:11:01;19.10;99.90
21312;DHT22;18076;52.154;10.570;2022-08-19T03:13:26;19.10;99.90
21312;DHT22;18076;52.154;10.570;2022-08-19T03:15:53;19.10;99.90
21312;DHT22;18076;52.154;10.570;2022-08-19T03:18:18;19.10;99.90
21312;DHT22;18076;52.154;10.570;2022-08-19T03:20:45;19.10;99.90
21312;DHT22;18076;52.154;10.570;2022-08-19T03:23:11;19.00;99.90
21312;DHT22;18076;52.154;10.570;2022-08-19T03:25:38;19.00;99.90
21312;DHT22;18076;52.154;10.570;2022-08-19T03:28:06;19.00;99.90
21312;DHT22;18076;52.154;10.570;2022-08-19T03:30:32;19.00;99.90
21312;DHT22;18076;52.154;10.570;2022-08-19T03:32:58;19.00;99.90
21312;DHT22;18076;52.154;10.570;2022-08-19T03:35:24;19.00;99.90
21312;DHT22;18076;52.154;10.570;2022-08-19T03:37:49;19.00;99.90
21312;DHT22;18076;52.154;10.570;2022-08-19T03:40:16;18.90;99.90
21312;DHT22;18076;52.154;10.570;2022-08-19T03:42:41;19.10;99.90
21312;DHT22;18076;52.154;10.570;2022-08-19T03:45:07;19.00;99.90
21312;DHT22;18076;52.154;10.570;2022-08-19T03:47:33;19.00;99.90
21312;DHT22;18076;52.154;10.570;2022-08-19T03:49:59;19.00;99.90
21312;DHT22;18076;52.154;10.570;2022-08-19T03:52:24;18.90;99.90
21312;DHT22;18076;52.154;10.570;2022-08-19T03:54:50;18.80;99.90
21312;DHT22;18076;52.154;10.570;2022-08-19T03:57:15;18.80;99.90
21312;DHT22;18076;52.154;10.570;2022-08-19T03:59:41;18.70;99.90
21312;DHT22;18076;52.154;10.570;2022-08-19T04:02:08;18.70;99.90
21312;DHT22;18076;52.154;10.570;2022-08-19T04:04:34;18.70;99.90
21312;DHT22;18076;52.154;10.570;2022-08-19T04:07:00;18.70;99.90
21312;DHT22;18076;52.154;10.570;2022-08-19T04:09:26;18.70;99.90
21312;DHT22;18076;52.154;10.570;2022-08-19T04:11:54;18.70;99.90
21312;DHT22;18076;52.154;10.570;2022-08-19T04:14:21;18.70;99.90
21312;DHT22;18076;52.154;10.570;2022-08-19T04:16:47;18.70;99.90
21312;DHT22;18076;52.154;10.570;2022-08-19T04:19:13;18.70;99.90
21312;DHT22;18076;52.154;10.570;2022-08-19T04:21:39;18.70;99.90
21312;DHT22;18076;52.154;10.570;2022-08-19T04:24:05;18.70;99.90
21312;DHT22;18076;52.154;10.570;2022-08-19T04:26:32;18.80;99.90
21312;DHT22;18076;52.154;10.570;2022-08-19T04:28:59;18.80;99.90
21312;DHT22;18076;52.154;10.570;2022-08-19T04:31:25;18.70;99.90
21312;DHT22;18076;52.154;10.570;2022-08-19T04:34:00;18.70;99.90
21312;DHT22;18076;52.154;10.570;2022-08-19T04:36:28;18.60;99.90
21312;DHT22;18076;52.154;10.570;2022-08-19T04:38:54;18.60;99.90
21312;DHT22;18076;52.154;10.570;2022-08-19T04:41:21;18.60;99.90
21312;DHT22;18076;52.154;10.570;2022-08-19T04:44:05;18.60;99.90
21312;DHT22;18076;52.154;10.570;2022-08-19T04:46:31;18.70;99.90
21312;DHT22;18076;52.154;10.570;2022-08-19T04:49:00;18.60;99.90
21312;DHT22;18076;52.154;10.570;2022-08-19T04:51:26;18.70;99.90
21312;DHT22;18076;52.154;10.570;2022-08-19T04:53:52;18.60;99.90
21312;DHT22;18076;52.154;10.570;2022-08-19T04:56:18;18.60;99.90
21312;DHT22;18076;52.154;10.570;2022-08-19T04:58:47;18.60;99.90
21312;DHT22;18076;52.154;10.570;2022-08-19T05:01:23;18.50;99.90
21312;DHT22;18076;52.154;10.570;2022-08-19T05:03:49;18.60;99.90
21312;DHT22;18076;52.154;10.570;2022-08-19T05:06:15;18.50;99.90
21312;DHT22;18076;52.154;10.570;2022-08-19T05:08:42;18.50;99.90
21312;DHT22;18076;52.154;10.570;2022-08-19T05:11:09;18.50;99.90
21312;DHT22;18076;52.154;10.570;2022-08-19T05:13:36;18.50;99.90
21312;DHT22;18076;52.154;10.570;2022-08-19T05:16:02;18.40;99.90
21312;DHT22;18076;52.154;10.570;2022-08-19T05:18:27;18.40;99.90
21312;DHT22;18076;52.154;10.570;2022-08-19T05:21:13;18.40;99.90
21312;DHT22;18076;52.154;10.570;2022-08-19T05:23:58;18.40;99.90
21312;DHT22;18076;52.154;10.570;2022-08-19T05:26:24;18.40;99.90
21312;DHT22;18076;52.154;10.570;2022-08-19T05:28:54;18.30;99.90
21312;DHT22;18076;52.154;10.570;2022-08-19T05:31:20;18.30;99.90
21312;DHT22;18076;52.154;10.570;2022-08-19T05:33:46;18.30;99.90
21312;DHT22;18076;52.154;10.570;2022-08-19T05:36:12;18.30;99.90
21312;DHT22;18076;52.154;10.570;2022-08-19T05:38:38;18.30;99.90
21312;DHT22;18076;52.154;10.570;2022-08-19T05:41:10;18.30;99.90
21312;DHT22;18076;52.154;10.570;2022-08-19T05:43:36;18.30;99.90
21312;DHT22;18076;52.154;10.570;2022-08-19T05:46:02;18.40;99.90
21312;DHT22;18076;52.154;10.570;2022-08-19T05:48:29;18.40;99.90
21312;DHT22;18076;52.154;10.570;2022-08-19T05:50:55;18.40;99.90
21312;DHT22;18076;52.154;10.570;2022-08-19T05:53:24;18.40;99.90
21312;DHT22;18076;52.154;10.570;2022-08-19T05:55:50;18.30;99.90
21312;DHT22;18076;52.154;10.570;2022-08-19T05:58:16;18.30;99.90
21312;DHT22;18076;52.154;10.570;2022-08-19T06:00:42;18.30;99.90
21312;DHT22;18076;52.154;10.570;2022-08-19T06:03:08;18.40;99.90
21312;DHT22;18076;52.154;10.570;2022-08-19T06:05:34;18.40;99.90
21312;DHT22;18076;52.154;10.570;2022-08-19T06:08:00;18.30;99.90
21312;DHT22;18076;52.154;10.570;2022-08-19T06:10:25;18.30;99.90
21312;DHT22;18076;52.154;10.570;2022-08-19T06:12:51;18.30;99.90
21312;DHT22;18076;52.154;10.570;2022-08-19T06:15:17;18.20;99.90
21312;DHT22;18076;52.154;10.570;2022-08-19T06:17:43;18.20;99.90
21312;DHT22;18076;52.154;10.570;2022-08-19T06:20:10;18.30;99.90
21312;DHT22;18076;52.154;10.570;2022-08-19T06:22:43;18.30;99.90
21312;DHT22;18076;52.154;10.570;2022-08-19T06:25:09;18.40;99.90
21312;DHT22;18076;52.154;10.570;2022-08-19T06:27:35;18.30;99.90
21312;DHT22;18076;52.154;10.570;2022-08-19T06:30:01;18.30;99.90
21312;DHT22;18076;52.154;10.570;2022-08-19T06:32:27;18.40;99.90
21312;DHT22;18076;52.154;10.570;2022-08-19T06:34:52;18.40;99.90
21312;DHT22;18076;52.154;10.570;2022-08-19T06:37:18;18.30;99.90
21312;DHT22;18076;52.154;10.570;2022-08-19T06:39:43;18.40;99.90
21312;DHT22;18076;52.154;10.570;2022-08-19T06:42:09;18.40;99.90
21312;DHT22;18076;52.154;10.570;2022-08-19T06:44:37;18.50;99.90
21312;DHT22;18076;52.154;10.570;2022-08-19T06:47:04;18.60;99.90
21312;DHT22;18076;52.154;10.570;2022-08-19T06:49:30;18.50;99.90
21312;DHT22;18076;52.154;10.570;2022-08-19T06:51:56;18.60;99.90
21312;DHT22;18076;52.154;10.570;2022-08-19T06:54:22;18.60;99.90
21312;DHT22;18076;52.154;10.570;2022-08-19T06:56:48;18.60;99.90
21312;DHT22;18076;52.154;10.570;2022-08-19T06:59:15;18.60;99.90
21312;DHT22;18076;52.154;10.570;2022-08-19T07:02:00;18.60;99.90
21312;DHT22;18076;52.154;10.570;2022-08-19T07:04:27;18.70;99.90
21312;DHT22;18076;52.154;10.570;2022-08-19T07:07:01;18.70;99.90
21312;DHT22;18076;52.154;10.570;2022-08-19T07:09:27;18.70;99.90
21312;DHT22;18076;52.154;10.570;2022-08-19T07:11:53;18.70;99.90
21312;DHT22;18076;52.154;10.570;2022-08-19T07:14:19;18.80;99.90
21312;DHT22;18076;52.154;10.570;2022-08-19T07:16:46;18.70;99.90
21312;DHT22;18076;52.154;10.570;2022-08-19T07:19:12;18.70;99.90
21312;DHT22;18076;52.154;10.570;2022-08-19T07:21:38;18.70;99.90
21312;DHT22;18076;52.154;10.570;2022-08-19T07:24:03;18.70;99.90
21312;DHT22;18076;52.154;10.570;2022-08-19T07:26:31;18.80;99.90
21312;DHT22;18076;52.154;10.570;2022-08-19T07:28:57;18.80;99.90
21312;DHT22;18076;52.154;10.570;2022-08-19T07:31:24;18.80;99.90
21312;DHT22;18076;52.154;10.570;2022-08-19T07:33:50;18.80;99.90
21312;DHT22;18076;52.154;10.570;2022-08-19T07:36:17;18.80;99.90
21312;DHT22;18076;52.154;10.570;2022-08-19T07:38:44;18.80;99.90
21312;DHT22;18076;52.154;10.570;2022-08-19T07:41:11;18.70;99.90
21312;DHT22;18076;52.154;10.570;2022-08-19T07:43:37;18.80;99.90
21312;DHT22;18076;52.154;10.570;2022-08-19T07:46:03;18.80;99.90
21312;DHT22;18076;52.154;10.570;2022-08-19T07:48:29;18.90;99.90
21312;DHT22;18076;52.154;10.570;2022-08-19T07:50:56;18.80;99.90
21312;DHT22;18076;52.154;10.570;2022-08-19T07:53:22;18.80;99.90
21312;DHT22;18076;52.154;10.570;2022-08-19T07:55:48;18.80;99.90
21312;DHT22;18076;52.154;10.570;2022-08-19T07:58:14;18.70;99.90
21312;DHT22;18076;52.154;10.570;2022-08-19T08:00:41;18.70;99.90
21312;DHT22;18076;52.154;10.570;2022-08-19T08:03:07;18.70;99.90
21312;DHT22;18076;52.154;10.570;2022-08-19T08:05:34;18.60;99.90
21312;DHT22;18076;52.154;10.570;2022-08-19T08:08:17;18.60;99.90
21312;DHT22;18076;52.154;10.570;2022-08-19T08:11:06;18.70;99.90
21312;DHT22;18076;52.154;10.570;2022-08-19T08:13:32;18.60;99.90
21312;DHT22;18076;52.154;10.570;2022-08-19T08:16:00;18.70;99.90
21312;DHT22;18076;52.154;10.570;2022-08-19T08:18:26;18.80;99.90
21312;DHT22;18076;52.154;10.570;2022-08-19T08:20:52;18.90;99.90
21312;DHT22;18076;52.154;10.570;2022-08-19T08:23:17;19.00;99.90
21312;DHT22;18076;52.154;10.570;2022-08-19T08:25:53;19.00;99.90
21312;DHT22;18076;52.154;10.570;2022-08-19T08:28:19;18.90;99.90
21312;DHT22;18076;52.154;10.570;2022-08-19T08:30:46;18.90;99.90
21312;DHT22;18076;52.154;10.570;2022-08-19T08:33:13;18.80;99.90
21312;DHT22;18076;52.154;10.570;2022-08-19T08:35:40;18.80;99.90
21312;DHT22;18076;52.154;10.570;2022-08-19T08:38:07;18.80;99.90
21312;DHT22;18076;52.154;10.570;2022-08-19T08:45:38;19.10;99.90
21312;DHT22;18076;52.154;10.570;2022-08-19T08:48:11;19.30;99.90
21312;DHT22;18076;52.154;10.570;2022-08-19T08:50:39;19.40;99.90
21312;DHT22;18076;52.154;10.570;2022-08-19T08:53:07;19.50;99.90
21312;DHT22;18076;52.154;10.570;2022-08-19T08:55:34;19.60;99.90
21312;DHT22;18076;52.154;10.570;2022-08-19T09:00:33;19.80;99.90
21312;DHT22;18076;52.154;10.570;2022-08-19T09:02:59;19.80;99.90
21312;DHT22;18076;52.154;10.570;2022-08-19T09:05:33;20.00;99.90
21312;DHT22;18076;52.154;10.570;2022-08-19T09:08:03;20.10;99.90
21312;DHT22;18076;52.154;10.570;2022-08-19T09:10:35;20.00;99.90
21312;DHT22;18076;52.154;10.570;2022-08-19T09:15:42;20.20;99.90
21312;DHT22;18076;52.154;10.570;2022-08-19T09:18:09;20.20;99.90
21312;DHT22;18076;52.154;10.570;2022-08-19T09:20:35;20.30;99.90
21312;DHT22;18076;52.154;10.570;2022-08-19T09:23:02;20.40;99.90
21312;DHT22;18076;52.154;10.570;2022-08-19T09:25:27;20.30;99.90
21312;DHT22;18076;52.154;10.570;2022-08-19T09:27:53;20.30;99.90
21312;DHT22;18076;52.154;10.570;2022-08-19T09:30:21;20.20;99.90
21312;DHT22;18076;52.154;10.570;2022-08-19T09:32:47;20.30;99.90
21312;DHT22;18076;52.154;10.570;2022-08-19T09:35:13;20.30;99.90
21312;DHT22;18076;52.154;10.570;2022-08-19T09:37:41;20.20;99.90
21312;DHT22;18076;52.154;10.570;2022-08-19T09:40:08;20.30;99.90
21312;DHT22;18076;52.154;10.570;2022-08-19T09:42:33;20.20;99.90
21312;DHT22;18076;52.154;10.570;2022-08-19T09:44:59;20.10;99.90
21312;DHT22;18076;52.154;10.570;2022-08-19T09:47:25;20.10;99.90
21312;DHT22;18076;52.154;10.570;2022-08-19T09:49:50;20.10;99.90
21312;DHT22;18076;52.154;10.570;2022-08-19T09:52:16;20.20;99.90
21312;DHT22;18076;52.154;10.570;2022-08-19T09:54:42;20.30;99.90
21312;DHT22;18076;52.154;10.570;2022-08-19T09:57:08;20.30;99.90
21312;DHT22;18076;52.154;10.570;2022-08-19T09:59:33;20.30;99.90
21312;DHT22;18076;52.154;10.570;2022-08-19T10:01:59;20.40;99.90
21312;DHT22;18076;52.154;10.570;2022-08-19T10:04:25;20.40;99.90
21312;DHT22;18076;52.154;10.570;2022-08-19T10:07:10;20.50;99.90
21312;DHT22;18076;52.154;10.570;2022-08-19T10:09:36;20.50;99.90
21312;DHT22;18076;52.154;10.570;2022-08-19T10:12:02;20.40;99.90
21312;DHT22;18076;52.154;10.570;2022-08-19T10:14:27;20.40;99.90
21312;DHT22;18076;52.154;10.570;2022-08-19T10:16:53;20.60;99.90
21312;DHT22;18076;52.154;10.570;2022-08-19T10:19:19;20.60;99.90
21312;DHT22;18076;52.154;10.570;2022-08-19T10:21:46;20.60;99.90
21312;DHT22;18076;52.154;10.570;2022-08-19T10:24:12;20.70;99.90
21312;DHT22;18076;52.154;10.570;2022-08-19T10:26:38;20.70;99.90
21312;DHT22;18076;52.154;10.570;2022-08-19T10:29:07;20.70;99.90
21312;DHT22;18076;52.154;10.570;2022-08-19T10:31:33;20.80;99.90
21312;DHT22;18076;52.154;10.570;2022-08-19T10:33:59;20.80;99.90
21312;DHT22;18076;52.154;10.570;2022-08-19T10:36:26;20.80;99.90
21312;DHT22;18076;52.154;10.570;2022-08-19T10:38:53;20.90;99.90
21312;DHT22;18076;52.154;10.570;2022-08-19T10:41:20;21.20;99.90
21312;DHT22;18076;52.154;10.570;2022-08-19T10:43:51;21.50;99.90
21312;DHT22;18076;52.154;10.570;2022-08-19T10:46:20;21.80;99.90
21312;DHT22;18076;52.154;10.570;2022-08-19T10:48:46;22.00;99.90
21312;DHT22;18076;52.154;10.570;2022-08-19T10:51:12;22.20;99.90
21312;DHT22;18076;52.154;10.570;2022-08-19T10:53:56;22.70;99.90
21312;DHT22;18076;52.154;10.570;2022-08-19T10:56:22;23.30;99.90
21312;DHT22;18076;52.154;10.570;2022-08-19T10:59:06;23.40;99.90
21312;DHT22;18076;52.154;10.570;2022-08-19T11:01:32;23.80;99.90
21312;DHT22;18076;52.154;10.570;2022-08-19T11:03:59;24.20;99.90
21312;DHT22;18076;52.154;10.570;2022-08-19T11:06:25;24.30;99.90
21312;DHT22;18076;52.154;10.570;2022-08-19T11:08:51;24.40;99.90
21312;DHT22;18076;52.154;10.570;2022-08-19T11:11:17;24.60;99.90
21312;DHT22;18076;52.154;10.570;2022-08-19T11:13:43;25.10;99.90
21312;DHT22;18076;52.154;10.570;2022-08-19T11:16:15;25.40;99.90
21312;DHT22;18076;52.154;10.570;2022-08-19T11:18:42;25.60;99.90
21312;DHT22;18076;52.154;10.570;2022-08-19T11:23:34;25.70;99.90
21312;DHT22;18076;52.154;10.570;2022-08-19T11:25:59;25.70;99.90
21312;DHT22;18076;52.154;10.570;2022-08-19T11:28:26;25.60;99.90
21312;DHT22;18076;52.154;10.570;2022-08-19T11:30:52;25.80;99.90
21312;DHT22;18076;52.154;10.570;2022-08-19T11:33:17;26.10;99.90
21312;DHT22;18076;52.154;10.570;2022-08-19T11:35:44;26.50;99.90
21312;DHT22;18076;52.154;10.570;2022-08-19T11:38:10;26.80;99.90
21312;DHT22;18076;52.154;10.570;2022-08-19T11:40:36;26.70;99.90
21312;DHT22;18076;52.154;10.570;2022-08-19T11:43:02;26.70;99.90
21312;DHT22;18076;52.154;10.570;2022-08-19T11:45:28;26.80;99.90
21312;DHT22;18076;52.154;10.570;2022-08-19T11:47:54;26.80;99.90
21312;DHT22;18076;52.154;10.570;2022-08-19T11:50:20;26.70;99.90
21312;DHT22;18076;52.154;10.570;2022-08-19T11:52:46;26.50;99.90
21312;DHT22;18076;52.154;10.570;2022-08-19T11:55:12;26.10;99.90
21312;DHT22;18076;52.154;10.570;2022-08-19T11:57:38;25.80;99.90
21312;DHT22;18076;52.154;10.570;2022-08-19T12:00:06;25.80;99.90
21312;DHT22;18076;52.154;10.570;2022-08-19T12:02:32;25.90;99.90
21312;DHT22;18076;52.154;10.570;2022-08-19T12:04:58;26.00;99.90
21312;DHT22;18076;52.154;10.570;2022-08-19T12:07:23;26.00;99.90
21312;DHT22;18076;52.154;10.570;2022-08-19T12:09:50;26.00;99.90
21312;DHT22;18076;52.154;10.570;2022-08-19T12:12:15;26.00;99.90
21312;DHT22;18076;52.154;10.570;2022-08-19T12:14:41;26.30;99.90
21312;DHT22;18076;52.154;10.570;2022-08-19T12:17:06;26.50;99.90
21312;DHT22;18076;52.154;10.570;2022-08-19T12:19:35;26.90;99.90
21312;DHT22;18076;52.154;10.570;2022-08-19T12:22:01;26.80;99.90
21312;DHT22;18076;52.154;10.570;2022-08-19T12:24:30;26.60;99.90
21312;DHT22;18076;52.154;10.570;2022-08-19T12:26:56;26.80;99.90
21312;DHT22;18076;52.154;10.570;2022-08-19T12:29:23;26.90;99.90
21312;DHT22;18076;52.154;10.570;2022-08-19T12:31:53;26.90;99.90
21312;DHT22;18076;52.154;10.570;2022-08-19T12:34:19;26.70;99.90
21312;DHT22;18076;52.154;10.570;2022-08-19T12:36:45;26.80;99.90
21312;DHT22;18076;52.154;10.570;2022-08-19T12:39:10;26.70;99.90
21312;DHT22;18076;52.154;10.570;2022-08-19T12:41:36;26.60;99.90
21312;DHT22;18076;52.154;10.570;2022-08-19T12:44:02;26.50;99.90
21312;DHT22;18076;52.154;10.570;2022-08-19T12:46:27;26.40;99.90
21312;DHT22;18076;52.154;10.570;2022-08-19T12:48:53;26.40;99.90
21312;DHT22;18076;52.154;10.570;2022-08-19T12:51:19;26.80;99.90
21312;DHT22;18076;52.154;10.570;2022-08-19T12:53:45;27.00;99.90
21312;DHT22;18076;52.154;10.570;2022-08-19T12:56:11;27.30;99.90
21312;DHT22;18076;52.154;10.570;2022-08-19T12:58:39;27.50;99.90
21312;DHT22;18076;52.154;10.570;2022-08-19T13:01:07;27.80;99.90
21312;DHT22;18076;52.154;10.570;2022-08-19T13:03:33;28.00;99.90
21312;DHT22;18076;52.154;10.570;2022-08-19T13:05:59;27.90;99.90
21312;DHT22;18076;52.154;10.570;2022-08-19T13:08:24;27.60;99.90
21312;DHT22;18076;52.154;10.570;2022-08-19T13:10:50;27.50;99.90
21312;DHT22;18076;52.154;10.570;2022-08-19T13:13:16;27.50;99.90
21312;DHT22;18076;52.154;10.570;2022-08-19T13:15:42;27.40;99.90
21312;DHT22;18076;52.154;10.570;2022-08-19T13:18:08;27.50;99.90
21312;DHT22;18076;52.154;10.570;2022-08-19T13:20:36;27.40;99.90
21312;DHT22;18076;52.154;10.570;2022-08-19T13:23:02;27.50;99.90
21312;DHT22;18076;52.154;10.570;2022-08-19T13:25:27;27.10;99.90
21312;DHT22;18076;52.154;10.570;2022-08-19T13:27:53;27.20;99.90
21312;DHT22;18076;52.154;10.570;2022-08-19T13:30:21;27.50;99.90
21312;DHT22;18076;52.154;10.570;2022-08-19T13:33:05;27.50;99.90
21312;DHT22;18076;52.154;10.570;2022-08-19T13:35:37;27.40;99.90
21312;DHT22;18076;52.154;10.570;2022-08-19T13:38:03;27.50;99.90
21312;DHT22;18076;52.154;10.570;2022-08-19T13:40:30;27.50;99.90
21312;DHT22;18076;52.154;10.570;2022-08-19T13:42:56;27.50;99.90
21312;DHT22;18076;52.154;10.570;2022-08-19T13:45:23;27.50;99.90
21312;DHT22;18076;52.154;10.570;2022-08-19T13:47:50;27.60;99.90
21312;DHT22;18076;52.154;10.570;2022-08-19T13:50:17;27.30;99.90
21312;DHT22;18076;52.154;10.570;2022-08-19T13:52:44;27.10;99.90
21312;DHT22;18076;52.154;10.570;2022-08-19T13:55:10;27.10;99.90
21312;DHT22;18076;52.154;10.570;2022-08-19T13:57:36;27.10;99.90
21312;DHT22;18076;52.154;10.570;2022-08-19T14:00:05;27.20;99.90
21312;DHT22;18076;52.154;10.570;2022-08-19T14:02:31;27.20;99.90
21312;DHT22;18076;52.154;10.570;2022-08-19T14:04:56;27.30;99.90
21312;DHT22;18076;52.154;10.570;2022-08-19T14:07:23;27.50;99.90
21312;DHT22;18076;52.154;10.570;2022-08-19T14:09:49;27.70;99.90
21312;DHT22;18076;52.154;10.570;2022-08-19T14:12:18;27.70;99.90
21312;DHT22;18076;52.154;10.570;2022-08-19T14:14:43;27.90;99.90
21312;DHT22;18076;52.154;10.570;2022-08-19T14:17:09;27.70;99.90
21312;DHT22;18076;52.154;10.570;2022-08-19T14:19:35;27.60;99.90
21312;DHT22;18076;52.154;10.570;2022-08-19T14:22:02;27.70;99.90
21312;DHT22;18076;52.154;10.570;2022-08-19T14:24:27;27.80;99.90
21312;DHT22;18076;52.154;10.570;2022-08-19T14:26:53;27.60;99.90
21312;DHT22;18076;52.154;10.570;2022-08-19T14:29:18;27.40;99.90
21312;DHT22;18076;52.154;10.570;2022-08-19T14:31:44;27.20;99.90
21312;DHT22;18076;52.154;10.570;2022-08-19T14:34:09;27.10;99.90
21312;DHT22;18076;52.154;10.570;2022-08-19T14:36:36;27.30;99.90
21312;DHT22;18076;52.154;10.570;2022-08-19T14:39:01;27.50;99.90
21312;DHT22;18076;52.154;10.570;2022-08-19T14:41:27;27.50;99.90
21312;DHT22;18076;52.154;10.570;2022-08-19T14:43:53;27.40;99.90
21312;DHT22;18076;52.154;10.570;2022-08-19T14:46:20;27.40;99.90
21312;DHT22;18076;52.154;10.570;2022-08-19T14:48:46;27.60;99.90
21312;DHT22;18076;52.154;10.570;2022-08-19T14:51:12;27.30;99.90
21312;DHT22;18076;52.154;10.570;2022-08-19T14:53:38;27.10;99.90
21312;DHT22;18076;52.154;10.570;2022-08-19T14:56:08;27.00;99.90
21312;DHT22;18076;52.154;10.570;2022-08-19T14:58:33;27.20;99.90
21312;DHT22;18076;52.154;10.570;2022-08-19T15:00:59;27.40;99.90
21312;DHT22;18076;52.154;10.570;2022-08-19T15:03:25;27.30;99.90
21312;DHT22;18076;52.154;10.570;2022-08-19T15:05:51;27.40;99.90
21312;DHT22;18076;52.154;10.570;2022-08-19T15:08:16;27.30;99.90
21312;DHT22;18076;52.154;10.570;2022-08-19T15:10:42;27.50;99.90
21312;DHT22;18076;52.154;10.570;2022-08-19T15:13:07;27.60;99.90
21312;DHT22;18076;52.154;10.570;2022-08-19T15:15:34;27.70;99.90
21312;DHT22;18076;52.154;10.570;2022-08-19T15:18:00;27.60;99.90
21312;DHT22;18076;52.154;10.570;2022-08-19T15:20:28;27.60;99.90
21312;DHT22;18076;52.154;10.570;2022-08-19T15:22:53;27.50;99.90
21312;DHT22;18076;52.154;10.570;2022-08-19T15:25:19;27.20;99.90
21312;DHT22;18076;52.154;10.570;2022-08-19T15:27:45;27.10;99.90
21312;DHT22;18076;52.154;10.570;2022-08-19T15:30:11;27.00;99.90